Time;durP1;ratioP1;P1;durP2;ratioP2;P2;SDS_P1;SDS_P2;PMS_P1;PMS_P2;Temp;Humidity;BMP_temperature;BMP_pressure;BME280_temperature;BME280_humidity;BME280_pressure;Samples;Min_cycle;Max_cycle;Signal;HPM_P1;HPM_P2
2024/01/07 00:02:03;;;;;;;;;;;;;;;8.68;85.11;99058.00;5497336;32;34488;-69
2024/01/07 00:05:06;;;;;;;;;;;;;;;8.35;86.27;99060.59;5481568;32;34908;-62
2024/01/07 00:08:08;;;;;;;;;;;;;;;9.42;82.53;99054.06;5503477;32;35419;-64
2024/01/07 00:11:10;;;;;;;;;;;;;;;8.86;84.37;99058.81;5490422;32;35441;-64
2024/01/07 00:14:12;;;;;;;;;;;;;;;9.24;82.42;99063.78;5494539;31;35005;-69
2024/01/07 00:17:14;;;;;;;;;;;;;;;9.59;81.45;99066.22;5483645;32;36854;-70
2024/01/07 00:20:16;;;;;;;;;;;;;;;9.88;79.07;99056.72;5488712;31;35184;-67
2024/01/07 00:23:20;;;;;;;;;;;;;;;9.82;77.05;99055.28;5487975;32;35346;-71
2024/01/07 00:26:22;;;;;;;;;;;;;;;9.86;77.53;99059.44;5494507;32;34553;-63
2024/01/07 00:29:24;;;;;;;;;;;;;;;9.42;80.49;99064.53;5497691;32;35300;-64
2024/01/07 00:32:26;;;;;;;;;;;;;;;9.35;81.14;99068.44;5491579;32;35135;-70
2024/01/07 00:35:29;;;;;;;;;;;;;;;9.22;80.72;99063.03;5487809;32;35179;-70
2024/01/07 00:38:31;;;;;;;;;;;;;;;9.10;82.58;99059.28;5499576;32;35034;-71
2024/01/07 00:41:33;;;;;;;;;;;;;;;9.44;81.76;99057.44;5489709;32;35533;-70
2024/01/07 00:44:36;;;;;;;;;;;;;;;9.23;81.50;99049.81;5499568;32;36077;-71
2024/01/07 00:47:39;;;;;;;;;;;;;;;9.08;81.53;99036.69;5476444;32;34919;-69
2024/01/07 00:50:42;;;;;;;;;;;;;;;9.31;80.68;99051.19;5495478;32;34758;-70
2024/01/07 00:53:44;;;;;;;;;;;;;;;9.75;79.59;99049.53;5482980;32;35088;-63
2024/01/07 00:56:46;;;;;;;;;;;;;;;8.99;81.94;99058.16;5489672;32;34627;-71
2024/01/07 00:59:50;;;;;;;;;;;;;;;9.51;81.84;99058.78;5498212;32;34737;-69
2024/01/07 01:02:52;;;;;;;;;;;;;;;9.09;79.86;99062.84;5491726;32;34947;-70
2024/01/07 01:05:54;;;;;;;;;;;;;;;9.05;82.39;99063.91;5496577;32;35592;-70
2024/01/07 01:08:56;;;;;;;;;;;;;;;9.16;81.09;99056.34;5480430;32;34721;-70
2024/01/07 01:11:59;;;;;;;;;;;;;;;9.64;80.25;99056.31;5476382;32;34175;-70
2024/01/07 01:15:01;;;;;;;;;;;;;;;9.57;79.88;99061.06;5495590;32;34923;-64
2024/01/07 01:18:03;;;;;;;;;;;;;;;9.24;80.39;99053.28;5495015;32;34300;-69
2024/01/07 01:21:05;;;;;;;;;;;;;;;9.30;80.68;99050.34;5495984;32;35234;-63
2024/01/07 01:24:07;;;;;;;;;;;;;;;9.48;77.89;99058.97;5492656;32;34718;-64
2024/01/07 01:27:10;;;;;;;;;;;;;;;9.65;78.37;99050.97;5494877;32;35326;-69
2024/01/07 01:30:13;;;;;;;;;;;;;;;9.57;77.95;99050.56;5489333;32;34772;-70
2024/01/07 01:33:15;;;;;;;;;;;;;;;9.50;77.23;99046.59;5492695;32;35383;-70
2024/01/07 01:36:17;;;;;;;;;;;;;;;9.55;76.81;99048.97;5489896;32;34929;-71
2024/01/07 01:39:20;;;;;;;;;;;;;;;8.97;81.15;99049.56;5491256;32;34722;-69
2024/01/07 01:42:22;;;;;;;;;;;;;;;9.16;80.00;99042.38;5493430;32;35324;-64
2024/01/07 01:45:24;;;;;;;;;;;;;;;8.94;82.68;99043.53;5476230;32;34744;-69
2024/01/07 01:48:27;;;;;;;;;;;;;;;9.30;82.08;99042.47;5484213;32;35264;-69
2024/01/07 01:51:30;;;;;;;;;;;;;;;9.00;82.09;99031.88;5461631;32;34737;-64
2024/01/07 01:54:32;;;;;;;;;;;;;;;9.43;82.08;99037.38;5478134;32;34591;-64
2024/01/07 01:57:37;;;;;;;;;;;;;;;9.93;77.38;99031.06;5494523;32;34393;-63
2024/01/07 02:00:40;;;;;;;;;;;;;;;8.89;84.11;99042.94;5469301;32;35518;-64
2024/01/07 02:03:42;;;;;;;;;;;;;;;9.68;79.82;99040.31;5481245;32;34733;-63
2024/01/07 02:06:45;;;;;;;;;;;;;;;9.46;79.94;99039.81;5492063;32;34431;-71
2024/01/07 02:09:47;;;;;;;;;;;;;;;8.57;83.27;99041.19;5479966;32;34209;-70
2024/01/07 02:12:49;;;;;;;;;;;;;;;8.50;84.01;99030.19;5474899;32;35374;-64
2024/01/07 02:15:51;;;;;;;;;;;;;;;8.40;86.61;99028.97;5496368;32;34445;-70
2024/01/07 02:18:54;;;;;;;;;;;;;;;8.33;86.46;99020.53;5497525;32;34526;-64
2024/01/07 02:21:56;;;;;;;;;;;;;;;8.97;85.69;99026.81;5475759;32;34898;-72
2024/01/07 02:24:58;;;;;;;;;;;;;;;8.75;84.52;99021.84;5479299;32;35063;-63
2024/01/07 02:28:00;;;;;;;;;;;;;;;8.90;84.37;99017.59;5486271;32;34873;-66
2024/01/07 02:31:03;;;;;;;;;;;;;;;8.92;84.39;99023.59;5492426;32;34967;-64
2024/01/07 02:34:05;;;;;;;;;;;;;;;8.90;84.26;99021.06;5470557;32;34966;-69
2024/01/07 02:37:08;;;;;;;;;;;;;;;9.18;83.82;99014.31;5488597;32;35133;-64
2024/01/07 02:40:10;;;;;;;;;;;;;;;9.15;83.51;98999.59;5499350;32;35576;-72
2024/01/07 02:43:13;;;;;;;;;;;;;;;8.79;83.94;99001.59;5471558;32;34369;-64
2024/01/07 02:46:15;;;;;;;;;;;;;;;8.77;83.54;99011.31;5495723;32;34617;-64
2024/01/07 02:49:18;;;;;;;;;;;;;;;9.01;83.11;99004.72;5490485;32;34915;-70
2024/01/07 02:52:20;;;;;;;;;;;;;;;8.83;85.08;99003.97;5496329;32;34617;-63
2024/01/07 02:55:22;;;;;;;;;;;;;;;8.47;84.97;99005.91;5496802;32;34962;-63
2024/01/07 02:58:24;;;;;;;;;;;;;;;8.29;86.79;99000.66;5494869;32;34830;-71
2024/01/07 03:01:26;;;;;;;;;;;;;;;8.24;87.90;99007.91;5488929;32;34833;-64
2024/01/07 03:04:29;;;;;;;;;;;;;;;8.24;88.72;98994.81;5483190;32;34322;-69
2024/01/07 03:07:31;;;;;;;;;;;;;;;8.06;87.85;98990.56;5504560;32;34105;-65
2024/01/07 03:10:33;;;;;;;;;;;;;;;8.14;90.18;98999.69;5479427;32;34047;-70
2024/01/07 03:13:35;;;;;;;;;;;;;;;8.39;87.42;98988.00;5502553;32;34156;-71
2024/01/07 03:16:37;;;;;;;;;;;;;;;8.26;87.53;98987.75;5495004;32;35463;-63
2024/01/07 03:19:39;;;;;;;;;;;;;;;8.04;88.08;98988.00;5481111;32;35186;-70
2024/01/07 03:22:41;;;;;;;;;;;;;;;7.79;92.17;98990.16;5498343;32;34598;-63
2024/01/07 03:25:44;;;;;;;;;;;;;;;7.61;91.03;98994.53;5490371;32;34585;-63
2024/01/07 03:28:46;;;;;;;;;;;;;;;8.00;91.17;98985.63;5501913;32;34331;-63
2024/01/07 03:31:48;;;;;;;;;;;;;;;8.18;88.92;98983.81;5475560;32;34717;-63
2024/01/07 03:34:50;;;;;;;;;;;;;;;8.38;87.52;98978.47;5500676;32;34596;-63
2024/01/07 03:37:52;;;;;;;;;;;;;;;8.08;88.04;98979.06;5498028;32;34805;-63
2024/01/07 03:40:55;;;;;;;;;;;;;;;8.19;90.80;98985.53;5493194;32;34861;-64
2024/01/07 03:43:57;;;;;;;;;;;;;;;7.76;88.37;98987.69;5502652;32;34906;-65
2024/01/07 03:46:59;;;;;;;;;;;;;;;8.07;87.89;98987.84;5477707;32;34786;-62
2024/01/07 03:50:01;;;;;;;;;;;;;;;8.01;90.45;98976.84;5497883;32;34476;-71
2024/01/07 03:53:03;;;;;;;;;;;;;;;8.03;88.25;98986.31;5495455;32;35010;-64
2024/01/07 03:56:06;;;;;;;;;;;;;;;8.23;88.97;98987.06;5499285;32;34288;-69
2024/01/07 03:59:08;;;;;;;;;;;;;;;8.26;88.80;98984.28;5480037;32;35124;-63
2024/01/07 04:02:11;;;;;;;;;;;;;;;8.34;88.56;98990.81;5498434;32;34989;-70
2024/01/07 04:05:14;;;;;;;;;;;;;;;8.56;88.37;98990.56;5485607;32;35318;-64
2024/01/07 04:08:17;;;;;;;;;;;;;;;8.88;85.95;98980.13;5483125;32;34800;-69
2024/01/07 04:11:19;;;;;;;;;;;;;;;8.29;87.72;98994.59;5501181;32;34640;-70
2024/01/07 04:14:21;;;;;;;;;;;;;;;8.63;86.33;98986.72;5492062;32;34321;-69
2024/01/07 04:17:24;;;;;;;;;;;;;;;8.91;84.76;98993.06;5498914;32;34805;-71
2024/01/07 04:20:26;;;;;;;;;;;;;;;9.21;84.21;98985.31;5499009;32;35478;-71
2024/01/07 04:23:28;;;;;;;;;;;;;;;9.02;83.71;99008.22;5493984;32;34260;-62
2024/01/07 04:26:30;;;;;;;;;;;;;;;8.73;83.27;98997.53;5497501;32;34530;-69
2024/01/07 04:29:32;;;;;;;;;;;;;;;9.25;82.34;98997.28;5490278;32;34841;-62
2024/01/07 04:32:34;;;;;;;;;;;;;;;9.07;82.33;98999.16;5497690;32;34853;-64
2024/01/07 04:35:36;;;;;;;;;;;;;;;9.07;82.67;99000.94;5481234;32;34492;-71
2024/01/07 04:38:39;;;;;;;;;;;;;;;8.58;84.01;99000.97;5476052;32;35179;-63
2024/01/07 04:41:41;;;;;;;;;;;;;;;9.06;82.51;99004.47;5500246;32;35380;-70
2024/01/07 04:44:44;;;;;;;;;;;;;;;8.55;85.05;98996.72;5481639;32;34735;-70
2024/01/07 04:47:47;;;;;;;;;;;;;;;8.02;87.81;98995.09;5493778;32;34752;-65
2024/01/07 04:50:50;;;;;;;;;;;;;;;8.78;86.40;99005.16;5492967;32;34854;-63
2024/01/07 04:53:52;;;;;;;;;;;;;;;8.09;86.60;99004.31;5493777;32;35151;-70
2024/01/07 04:56:54;;;;;;;;;;;;;;;7.83;90.23;99004.78;5489943;32;35467;-69
2024/01/07 04:59:56;;;;;;;;;;;;;;;7.97;89.55;98997.06;5485273;32;35471;-63
2024/01/07 05:02:58;;;;;;;;;;;;;;;8.65;88.38;98995.31;5502369;32;35014;-65
2024/01/07 05:06:01;;;;;;;;;;;;;;;8.15;87.27;99001.38;5498629;32;34527;-70
2024/01/07 05:09:04;;;;;;;;;;;;;;;8.23;88.98;98997.53;5502269;32;34784;-70
2024/01/07 05:12:06;;;;;;;;;;;;;;;8.42;88.34;98995.69;5498238;32;35232;-72
2024/01/07 05:15:09;;;;;;;;;;;;;;;8.88;85.61;98987.97;5504002;32;34968;-69
2024/01/07 05:18:11;;;;;;;;;;;;;;;8.96;85.31;98988.44;5497851;32;34952;-64
2024/01/07 05:21:15;;;;;;;;;;;;;;;8.49;85.45;98994.44;5498256;32;34855;-64
2024/01/07 05:24:18;;;;;;;;;;;;;;;8.36;87.85;98993.38;5498689;32;35494;-70
2024/01/07 05:27:20;;;;;;;;;;;;;;;8.67;86.89;98982.13;5491643;32;34334;-71
2024/01/07 05:30:22;;;;;;;;;;;;;;;8.34;87.89;98987.34;5501558;32;34205;-71
2024/01/07 05:33:24;;;;;;;;;;;;;;;8.08;90.20;98999.16;5494398;32;34297;-69
2024/01/07 05:36:27;;;;;;;;;;;;;;;7.86;92.66;98991.56;5494354;32;35009;-63
2024/01/07 05:39:29;;;;;;;;;;;;;;;8.22;89.95;98991.44;5494879;32;35537;-69
2024/01/07 05:42:31;;;;;;;;;;;;;;;8.22;89.32;98987.97;5482299;32;35133;-69
2024/01/07 05:45:33;;;;;;;;;;;;;;;8.14;90.18;98989.22;5504334;32;35237;-63
2024/01/07 05:48:45;;;;;;;;;;;;;;;8.61;87.36;98992.94;5490900;32;34721;-63
2024/01/07 05:51:48;;;;;;;;;;;;;;;9.13;86.07;98993.56;5496547;32;35620;-63
2024/01/07 05:54:50;;;;;;;;;;;;;;;9.37;82.96;98990.53;5499136;32;35599;-71
2024/01/07 05:57:52;;;;;;;;;;;;;;;8.84;85.25;98989.94;5495925;32;35289;-70
2024/01/07 06:00:54;;;;;;;;;;;;;;;9.19;82.51;98987.16;5497974;32;34772;-64
2024/01/07 06:03:56;;;;;;;;;;;;;;;8.89;85.58;99003.66;5465630;32;34744;-63
2024/01/07 06:06:59;;;;;;;;;;;;;;;9.02;84.17;98995.97;5494434;32;35349;-71
2024/01/07 06:10:02;;;;;;;;;;;;;;;9.00;84.17;98991.72;5498113;32;34091;-63
2024/01/07 06:13:04;;;;;;;;;;;;;;;9.40;82.99;98998.22;5495552;32;34334;-64
2024/01/07 06:16:06;;;;;;;;;;;;;;;8.60;85.60;98997.34;5480445;32;34391;-64
2024/01/07 06:19:09;;;;;;;;;;;;;;;9.04;85.88;98998.50;5497453;32;34294;-63
2024/01/07 06:22:11;;;;;;;;;;;;;;;8.67;87.74;99003.09;5496689;32;34226;-70
2024/01/07 06:25:13;;;;;;;;;;;;;;;8.81;87.07;98997.09;5492532;32;34345;-64
2024/01/07 06:28:15;;;;;;;;;;;;;;;9.66;83.35;98999.34;5494900;32;34814;-64
2024/01/07 06:31:17;;;;;;;;;;;;;;;9.43;82.44;99000.69;5489295;32;34646;-63
2024/01/07 06:34:21;;;;;;;;;;;;;;;9.84;80.28;99000.06;5496858;32;34543;-69
2024/01/07 06:37:23;;;;;;;;;;;;;;;9.25;83.30;99001.69;5483289;32;34653;-70
2024/01/07 06:40:25;;;;;;;;;;;;;;;9.10;85.06;98995.53;5498355;32;35149;-71
2024/01/07 06:43:27;;;;;;;;;;;;;;;8.98;85.26;99004.91;5480001;32;35390;-64
2024/01/07 06:46:30;;;;;;;;;;;;;;;9.14;83.22;99003.13;5491432;32;34393;-64
2024/01/07 06:49:32;;;;;;;;;;;;;;;9.81;81.31;99002.87;5498870;32;34993;-64
2024/01/07 06:52:34;;;;;;;;;;;;;;;9.79;80.86;99010.87;5485892;32;34999;-63
2024/01/07 06:55:36;;;;;;;;;;;;;;;8.88;84.11;99016.81;5501067;32;34517;-70
2024/01/07 06:58:39;;;;;;;;;;;;;;;9.07;85.38;99011.41;5492313;32;34850;-63
2024/01/07 07:01:41;;;;;;;;;;;;;;;8.74;85.75;99017.53;5479548;32;34987;-69
2024/01/07 07:04:43;;;;;;;;;;;;;;;9.34;84.36;99020.41;5498199;32;34321;-63
2024/01/07 07:07:45;;;;;;;;;;;;;;;9.60;80.99;99021.56;5492573;32;35231;-64
2024/01/07 07:10:47;;;;;;;;;;;;;;;9.12;82.87;99028.59;5500420;32;34440;-64
2024/01/07 07:13:50;;;;;;;;;;;;;;;9.61;82.82;99031.13;5478889;32;34730;-70
2024/01/07 07:16:56;;;;;;;;;;;;;;;8.99;82.53;99027.56;5495912;32;34053;-65
2024/01/07 07:20:00;;;;;;;;;;;;;;;8.97;85.18;99031.22;5498134;32;35219;-64
2024/01/07 07:23:03;;;;;;;;;;;;;;;9.16;85.91;99031.91;5493961;32;34612;-71
2024/01/07 07:26:05;;;;;;;;;;;;;;;9.21;83.81;99030.72;5495723;32;35107;-64
2024/01/07 07:29:10;;;;;;;;;;;;;;;9.42;83.56;99035.69;5492079;32;35008;-70
2024/01/07 07:32:12;;;;;;;;;;;;;;;9.19;84.23;99027.31;5493861;32;34943;-64
2024/01/07 07:35:15;;;;;;;;;;;;;;;8.78;85.71;99033.97;5479386;32;34748;-63
2024/01/07 07:38:17;;;;;;;;;;;;;;;8.68;87.61;99026.56;5488742;32;34797;-72
2024/01/07 07:41:20;;;;;;;;;;;;;;;8.50;89.20;99031.94;5480539;32;34755;-70
2024/01/07 07:44:22;;;;;;;;;;;;;;;8.90;87.45;99036.78;5496162;32;34201;-63
2024/01/07 07:47:24;;;;;;;;;;;;;;;9.38;83.70;99036.78;5495963;32;35448;-63
2024/01/07 07:50:26;;;;;;;;;;;;;;;8.40;89.53;99042.88;5498706;32;34619;-70
2024/01/07 07:53:28;;;;;;;;;;;;;;;8.83;88.59;99039.81;5481589;32;34468;-63
2024/01/07 07:56:30;;;;;;;;;;;;;;;8.93;87.51;99044.47;5493339;32;34367;-71
2024/01/07 07:59:32;;;;;;;;;;;;;;;8.98;85.58;99044.22;5501309;32;34649;-64
2024/01/07 08:02:34;;;;;;;;;;;;;;;8.44;89.78;99047.94;5492550;32;34353;-65
2024/01/07 08:05:37;;;;;;;;;;;;;;;9.19;86.51;99048.28;5499784;32;35944;-72
2024/01/07 08:08:39;;;;;;;;;;;;;;;9.20;83.96;99046.50;5502989;32;34899;-71
2024/01/07 08:11:41;;;;;;;;;;;;;;;9.45;84.37;99054.72;5478346;32;35465;-70
2024/01/07 08:14:43;;;;;;;;;;;;;;;8.70;88.24;99049.25;5503433;32;34875;-63
2024/01/07 08:17:45;;;;;;;;;;;;;;;9.63;84.26;99049.38;5476721;32;34217;-66
2024/01/07 08:20:48;;;;;;;;;;;;;;;9.53;83.67;99046.41;5488929;32;34894;-65
2024/01/07 08:23:50;;;;;;;;;;;;;;;9.63;82.21;99052.84;5490888;32;34346;-64
2024/01/07 08:26:52;;;;;;;;;;;;;;;9.09;85.14;99057.59;5493420;32;35141;-69
2024/01/07 08:29:54;;;;;;;;;;;;;;;8.86;86.45;99060.59;5498356;32;34519;-71
2024/01/07 08:32:56;;;;;;;;;;;;;;;9.25;87.07;99068.09;5484173;32;34334;-72
2024/01/07 08:35:59;;;;;;;;;;;;;;;8.70;87.68;99070.19;5497549;32;34511;-70
2024/01/07 08:39:01;;;;;;;;;;;;;;;8.77;89.32;99075.03;5486404;32;34274;-64
2024/01/07 08:42:03;;;;;;;;;;;;;;;8.53;89.36;99069.28;5495093;32;35070;-71
2024/01/07 08:45:06;;;;;;;;;;;;;;;8.77;89.14;99068.94;5495008;32;34367;-64
2024/01/07 08:48:09;;;;;;;;;;;;;;;8.50;88.89;99066.84;5496001;32;34320;-64
2024/01/07 08:51:11;;;;;;;;;;;;;;;8.47;91.50;99076.63;5497529;32;34696;-70
2024/01/07 08:54:13;;;;;;;;;;;;;;;9.20;87.50;99075.34;5497020;32;35342;-64
2024/01/07 08:57:15;;;;;;;;;;;;;;;8.01;91.30;99089.38;5473734;32;35253;-63
2024/01/07 09:00:18;;;;;;;;;;;;;;;8.99;89.30;99077.34;5493137;32;34310;-63
2024/01/07 09:03:20;;;;;;;;;;;;;;;8.86;89.48;99089.41;5492729;32;34703;-69
2024/01/07 09:06:22;;;;;;;;;;;;;;;9.06;87.54;99078.72;5492015;32;34735;-69
2024/01/07 09:09:24;;;;;;;;;;;;;;;9.38;87.05;99086.63;5497475;32;34498;-63
2024/01/07 09:12:29;;;;;;;;;;;;;;;9.94;82.58;99085.22;5480937;32;34941;-65
2024/01/07 09:15:31;;;;;;;;;;;;;;;8.40;89.30;99095.25;5492889;32;35174;-71
2024/01/07 09:18:34;;;;;;;;;;;;;;;8.45;90.21;99091.56;5496110;32;35123;-70
2024/01/07 09:21:36;;;;;;;;;;;;;;;8.87;88.63;99091.09;5488094;32;34626;-64
2024/01/07 09:24:38;;;;;;;;;;;;;;;9.44;87.14;99086.28;5490967;32;34426;-69
2024/01/07 09:27:41;;;;;;;;;;;;;;;9.59;85.21;99090.66;5476604;32;35534;-63
2024/01/07 09:30:43;;;;;;;;;;;;;;;9.96;81.67;99094.69;5490287;32;35278;-64
2024/01/07 09:33:45;;;;;;;;;;;;;;;9.37;83.66;99088.41;5495054;32;34558;-64
2024/01/07 09:36:47;;;;;;;;;;;;;;;9.53;84.52;99098.03;5495523;32;35206;-66
2024/01/07 09:39:49;;;;;;;;;;;;;;;9.59;84.85;99097.69;5502311;32;34718;-69
2024/01/07 09:42:52;;;;;;;;;;;;;;;9.14;85.37;99091.41;5473009;32;34375;-65
2024/01/07 09:45:54;;;;;;;;;;;;;;;9.78;84.54;99088.69;5488991;32;34248;-69
2024/01/07 09:48:56;;;;;;;;;;;;;;;9.93;81.56;99094.87;5488086;32;34955;-70
2024/01/07 09:52:00;;;;;;;;;;;;;;;9.19;84.17;99084.16;5493850;32;34887;-64
2024/01/07 09:55:03;;;;;;;;;;;;;;;9.04;86.92;99077.13;5493416;32;34922;-71
2024/01/07 09:58:06;;;;;;;;;;;;;;;9.46;85.00;99077.38;5472146;32;35170;-64
2024/01/07 10:01:08;;;;;;;;;;;;;;;8.80;86.51;99081.88;5491316;32;34663;-63
2024/01/07 10:04:10;;;;;;;;;;;;;;;8.34;90.18;99085.06;5470585;32;34367;-69
2024/01/07 10:07:13;;;;;;;;;;;;;;;9.15;87.09;99080.84;5491757;32;34996;-63
2024/01/07 10:10:15;;;;;;;;;;;;;;;9.77;83.55;99080.94;5487544;32;35867;-64
2024/01/07 10:13:17;;;;;;;;;;;;;;;9.38;84.01;99076.97;5467790;32;34907;-63
2024/01/07 10:16:20;;;;;;;;;;;;;;;9.13;86.29;99072.22;5475579;32;34196;-71
2024/01/07 10:19:22;;;;;;;;;;;;;;;9.65;82.45;99076.38;5457434;32;842169;-64
2024/01/07 10:22:25;;;;;;;;;;;;;;;8.86;85.96;99071.06;5493549;32;34832;-70
2024/01/07 10:25:28;;;;;;;;;;;;;;;8.60;88.83;99075.91;5469729;32;34312;-65
2024/01/07 10:28:31;;;;;;;;;;;;;;;9.35;84.90;99073.69;5484881;32;34131;-64
2024/01/07 10:31:33;;;;;;;;;;;;;;;9.70;84.14;99069.09;5492388;32;34948;-63
2024/01/07 10:34:36;;;;;;;;;;;;;;;9.41;85.21;99074.19;5488851;32;35203;-69
2024/01/07 10:37:39;;;;;;;;;;;;;;;9.72;83.33;99068.09;5492950;32;35033;-62
2024/01/07 10:40:41;;;;;;;;;;;;;;;9.37;85.65;99071.81;5474004;32;34706;-63
2024/01/07 10:43:43;;;;;;;;;;;;;;;8.92;86.35;99060.28;5489281;32;34972;-63
2024/01/07 10:46:46;;;;;;;;;;;;;;;9.40;86.53;99062.03;5477516;32;34832;-71
2024/01/07 10:49:50;;;;;;;;;;;;;;;8.81;87.30;99063.44;5483856;32;34932;-64
2024/01/07 10:52:57;;;;;;;;;;;;;;;8.78;88.70;99065.41;5492699;32;34294;-70
2024/01/07 10:56:05;;;;;;;;;;;;;;;8.71;89.23;99066.66;5487624;32;34625;-64
2024/01/07 10:59:08;;;;;;;;;;;;;;;8.69;86.73;99064.09;5472572;32;34732;-71
2024/01/07 11:02:10;;;;;;;;;;;;;;;9.16;85.69;99060.72;5476855;32;34407;-70
2024/01/07 11:05:17;;;;;;;;;;;;;;;9.72;83.93;99056.72;5460894;32;34585;-63
2024/01/07 11:08:34;;;;;;;;;;;;;;;9.02;86.87;99056.25;5471509;32;36393;-65
2024/01/07 11:11:41;;;;;;;;;;;;;;;9.13;88.96;99053.88;5490138;32;34341;-64
2024/01/07 11:14:53;;;;;;;;;;;;;;;9.66;84.58;99042.19;5472384;32;34899;-64
2024/01/07 11:17:55;;;;;;;;;;;;;;;9.99;82.06;99039.41;5471821;32;34401;-71
2024/01/07 11:21:03;;;;;;;;;;;;;;;8.97;85.87;99050.38;5491520;32;34858;-69
2024/01/07 11:24:05;;;;;;;;;;;;;;;9.27;83.64;99049.63;5482795;32;35309;-63
2024/01/07 11:27:11;;;;;;;;;;;;;;;9.34;84.25;99040.50;5492025;32;35298;-71
2024/01/07 11:30:18;;;;;;;;;;;;;;;9.04;83.41;99048.28;5503302;32;34573;-63
2024/01/07 11:33:20;;;;;;;;;;;;;;;9.33;80.80;99044.91;5488304;32;34961;-69
2024/01/07 11:36:23;;;;;;;;;;;;;;;8.24;86.05;99051.56;5495546;32;34958;-72
2024/01/07 11:39:25;;;;;;;;;;;;;;;8.13;87.48;99047.72;5468149;32;34540;-70
2024/01/07 11:42:27;;;;;;;;;;;;;;;7.56;87.16;99059.28;5497208;32;35106;-72
2024/01/07 11:45:29;;;;;;;;;;;;;;;7.86;88.24;99052.56;5487264;32;34310;-70
2024/01/07 11:48:31;;;;;;;;;;;;;;;7.97;85.55;99059.03;5474148;32;34153;-70
2024/01/07 11:51:35;;;;;;;;;;;;;;;7.71;86.31;99047.22;5496791;32;35086;-63
2024/01/07 11:54:38;;;;;;;;;;;;;;;7.85;84.20;99052.62;5481276;32;34166;-71
2024/01/07 11:57:41;;;;;;;;;;;;;;;7.76;86.38;99050.47;5497699;32;34376;-71
2024/01/07 12:00:44;;;;;;;;;;;;;;;8.27;82.51;99043.56;5472259;32;35146;-71
2024/01/07 12:03:46;;;;;;;;;;;;;;;7.44;85.33;99050.25;5491009;32;34083;-70
2024/01/07 12:06:49;;;;;;;;;;;;;;;7.60;84.87;99053.00;5482079;32;34203;-65
2024/01/07 12:09:57;;;;;;;;;;;;;;;7.44;86.73;99045.03;5481398;32;34235;-70
2024/01/07 12:13:00;;;;;;;;;;;;;;;8.31;81.18;99050.34;5494444;32;34265;-70
2024/01/07 12:16:03;;;;;;;;;;;;;;;7.41;84.54;99050.41;5473328;32;34779;-64
2024/01/07 12:19:06;;;;;;;;;;;;;;;7.32;83.50;99053.44;5474858;32;34776;-65
2024/01/07 12:22:08;;;;;;;;;;;;;;;8.01;79.04;99060.59;5476626;32;34635;-71
2024/01/07 12:25:11;;;;;;;;;;;;;;;8.12;80.16;99058.28;5483300;32;35146;-70
2024/01/07 12:28:13;;;;;;;;;;;;;;;7.31;80.93;99067.44;5486839;32;34646;-63
2024/01/07 12:31:15;;;;;;;;;;;;;;;6.74;84.52;99071.78;5470568;32;35460;-63
2024/01/07 12:34:18;;;;;;;;;;;;;;;6.71;83.68;99072.75;5479270;32;34887;-64
2024/01/07 12:37:21;;;;;;;;;;;;;;;7.31;81.65;99070.87;5489130;32;35298;-64
2024/01/07 12:40:24;;;;;;;;;;;;;;;6.76;83.65;99069.94;5487974;32;34663;-64
2024/01/07 12:43:26;;;;;;;;;;;;;;;6.48;85.00;99070.31;5497599;31;34680;-63
2024/01/07 12:46:29;;;;;;;;;;;;;;;7.14;83.06;99069.97;5489069;32;35476;-71
2024/01/07 12:49:31;;;;;;;;;;;;;;;6.84;82.48;99073.06;5496473;32;34770;-70
2024/01/07 12:52:33;;;;;;;;;;;;;;;6.61;83.76;99078.44;5493650;32;34872;-70
2024/01/07 12:55:35;;;;;;;;;;;;;;;6.56;84.39;99073.41;5483396;32;35375;-71
2024/01/07 12:58:38;;;;;;;;;;;;;;;7.09;82.93;99083.25;5482088;32;34981;-64
2024/01/07 13:01:40;;;;;;;;;;;;;;;6.35;84.76;99092.63;5480916;32;35110;-63
2024/01/07 13:04:42;;;;;;;;;;;;;;;6.53;84.16;99085.78;5480372;32;34267;-64
2024/01/07 13:07:44;;;;;;;;;;;;;;;6.60;84.28;99090.66;5488598;32;35424;-70
2024/01/07 13:10:48;;;;;;;;;;;;;;;6.89;80.56;99092.00;5487446;32;34857;-63
2024/01/07 13:14:01;;;;;;;;;;;;;;;6.56;81.66;99099.53;5482894;32;34247;-71
2024/01/07 13:17:04;;;;;;;;;;;;;;;6.55;82.90;99103.06;5499794;32;35097;-64
2024/01/07 13:20:07;;;;;;;;;;;;;;;6.69;82.28;99099.84;5465914;32;35556;-64
2024/01/07 13:23:09;;;;;;;;;;;;;;;6.92;81.00;99099.69;5490768;32;34682;-70
2024/01/07 13:26:11;;;;;;;;;;;;;;;6.46;81.37;99104.31;5489266;32;34919;-70
2024/01/07 13:29:13;;;;;;;;;;;;;;;6.34;83.10;99112.66;5482611;32;34945;-64
2024/01/07 13:32:18;;;;;;;;;;;;;;;6.64;82.20;99109.66;5496337;32;34673;-63
2024/01/07 13:35:20;;;;;;;;;;;;;;;6.60;80.05;99108.94;5486317;32;34815;-63
2024/01/07 13:38:23;;;;;;;;;;;;;;;6.40;81.42;99101.97;5477041;32;34228;-63
2024/01/07 13:41:28;;;;;;;;;;;;;;;6.38;80.75;99123.81;5494501;32;34649;-65
2024/01/07 13:44:31;;;;;;;;;;;;;;;6.30;81.03;99120.66;5486781;32;33874;-63
2024/01/07 13:47:35;;;;;;;;;;;;;;;5.78;84.42;99127.97;5494541;32;34787;-71
2024/01/07 13:50:37;;;;;;;;;;;;;;;6.29;82.07;99127.66;5489827;32;34252;-70
2024/01/07 13:53:39;;;;;;;;;;;;;;;6.75;79.74;99123.91;5487628;32;34883;-70
2024/01/07 13:56:42;;;;;;;;;;;;;;;6.11;81.65;99131.84;5494285;32;35702;-68
2024/01/07 13:59:44;;;;;;;;;;;;;;;6.47;81.84;99128.66;5490330;32;35363;-63
2024/01/07 14:02:47;;;;;;;;;;;;;;;7.00;78.75;99133.28;5476365;32;35058;-70
2024/01/07 14:05:49;;;;;;;;;;;;;;;5.98;81.58;99130.66;5491408;32;35742;-64
2024/01/07 14:08:52;;;;;;;;;;;;;;;6.29;78.68;99130.25;5488583;32;34548;-63
2024/01/07 14:11:54;;;;;;;;;;;;;;;6.16;78.94;99139.50;5480922;32;34975;-63
2024/01/07 14:14:56;;;;;;;;;;;;;;;6.07;80.01;99137.28;5476162;32;36518;-70
2024/01/07 14:17:58;;;;;;;;;;;;;;;5.48;82.15;99148.28;5490443;32;34606;-71
2024/01/07 14:21:01;;;;;;;;;;;;;;;6.34;78.44;99146.56;5479722;32;35141;-70
2024/01/07 14:24:03;;;;;;;;;;;;;;;6.17;78.71;99143.81;5470031;32;34818;-70
2024/01/07 14:27:05;;;;;;;;;;;;;;;6.29;78.27;99156.34;5474991;32;34530;-62
2024/01/07 14:30:07;;;;;;;;;;;;;;;5.94;78.18;99158.62;5486835;32;34443;-64
2024/01/07 14:33:09;;;;;;;;;;;;;;;5.98;79.23;99165.41;5487772;32;34816;-70
2024/01/07 14:36:16;;;;;;;;;;;;;;;5.22;79.87;99168.31;5487221;32;34453;-69
2024/01/07 14:39:19;;;;;;;;;;;;;;;5.33;80.62;99176.56;5480569;32;34505;-71
2024/01/07 14:42:21;;;;;;;;;;;;;;;5.64;78.52;99175.44;5490791;32;34862;-66
2024/01/07 14:45:23;;;;;;;;;;;;;;;6.16;76.46;99176.88;5472080;32;34786;-62
2024/01/07 14:48:25;;;;;;;;;;;;;;;5.72;76.97;99189.00;5471471;32;34620;-65
2024/01/07 14:51:28;;;;;;;;;;;;;;;4.92;80.31;99187.66;5495674;32;35296;-70
2024/01/07 14:54:32;;;;;;;;;;;;;;;5.42;77.85;99186.69;5482198;32;34633;-70
2024/01/07 14:57:34;;;;;;;;;;;;;;;5.48;76.26;99189.97;5497858;32;35062;-63
2024/01/07 15:00:36;;;;;;;;;;;;;;;5.02;78.35;99192.47;5489701;32;34814;-62
2024/01/07 15:03:39;;;;;;;;;;;;;;;4.55;78.49;99200.16;5491705;32;34757;-64
2024/01/07 15:06:42;;;;;;;;;;;;;;;5.05;77.87;99188.91;5478269;32;34356;-69
2024/01/07 15:09:44;;;;;;;;;;;;;;;5.28;75.64;99196.75;5469396;32;34776;-71
2024/01/07 15:12:48;;;;;;;;;;;;;;;4.74;75.91;99212.56;5497156;32;35231;-70
2024/01/07 15:16:03;;;;;;;;;;;;;;;4.89;78.12;99205.09;5488571;32;34888;-70
2024/01/07 15:19:05;;;;;;;;;;;;;;;4.85;76.66;99211.28;5504677;32;35456;-71
2024/01/07 15:22:07;;;;;;;;;;;;;;;4.96;74.87;99216.13;5498785;32;34266;-64
2024/01/07 15:25:10;;;;;;;;;;;;;;;4.83;76.48;99209.63;5501837;32;34313;-63
2024/01/07 15:28:13;;;;;;;;;;;;;;;5.05;76.40;99222.78;5495848;32;35010;-70
2024/01/07 15:31:15;;;;;;;;;;;;;;;4.69;77.90;99225.72;5485715;31;34859;-63
2024/01/07 15:34:18;;;;;;;;;;;;;;;4.77;76.46;99218.53;5484968;32;34904;-65
2024/01/07 15:37:21;;;;;;;;;;;;;;;4.45;76.15;99229.16;5492022;32;34672;-63
2024/01/07 15:40:26;;;;;;;;;;;;;;;4.51;76.98;99226.34;5501962;32;35068;-64
2024/01/07 15:43:29;;;;;;;;;;;;;;;4.52;76.46;99223.69;5481165;32;34069;-65
2024/01/07 15:46:31;;;;;;;;;;;;;;;4.60;75.01;99223.44;5493758;32;34217;-63
2024/01/07 15:49:33;;;;;;;;;;;;;;;4.04;77.27;99232.16;5499191;32;34736;-70
2024/01/07 15:52:35;;;;;;;;;;;;;;;4.41;75.81;99241.41;5493180;32;35531;-64
2024/01/07 15:55:37;;;;;;;;;;;;;;;4.42;76.27;99209.28;5500522;32;35160;-69
2024/01/07 15:58:39;;;;;;;;;;;;;;;4.29;76.42;99228.78;5493948;32;35575;-63
2024/01/07 16:01:45;;;;;;;;;;;;;;;4.69;75.32;99215.31;5495615;32;34910;-71
2024/01/07 16:04:48;;;;;;;;;;;;;;;4.93;74.00;99242.25;5494394;32;34587;-69